sensor_id;sensor_type;location;lat;lon;timestamp;P1;durP1;ratioP1;P2;durP2;ratioP2
71162;SDS011;58858;50.948;6.566;2023-04-25T00:00:41;12.30;;;4.07;;
71162;SDS011;58858;50.948;6.566;2023-04-25T00:10:42;12.98;;;3.90;;
71162;SDS011;58858;50.948;6.566;2023-04-25T00:20:43;11.07;;;3.92;;
71162;SDS011;58858;50.948;6.566;2023-04-25T00:30:47;11.65;;;4.22;;
71162;SDS011;58858;50.948;6.566;2023-04-25T00:40:48;11.68;;;3.58;;
71162;SDS011;58858;50.948;6.566;2023-04-25T00:50:51;9.85;;;4.32;;
71162;SDS011;58858;50.948;6.566;2023-04-25T01:10:56;15.30;;;6.20;;
71162;SDS011;58858;50.948;6.566;2023-04-25T01:21:01;8.77;;;4.32;;
71162;SDS011;58858;50.948;6.566;2023-04-25T01:31:11;13.55;;;5.80;;
71162;SDS011;58858;50.948;6.566;2023-04-25T01:41:13;13.15;;;5.60;;
71162;SDS011;58858;50.948;6.566;2023-04-25T01:51:15;12.02;;;4.88;;
71162;SDS011;58858;50.948;6.566;2023-04-25T02:01:16;13.70;;;5.70;;
71162;SDS011;58858;50.948;6.566;2023-04-25T02:11:25;20.55;;;7.85;;
71162;SDS011;58858;50.948;6.566;2023-04-25T02:21:37;17.55;;;5.88;;
71162;SDS011;58858;50.948;6.566;2023-04-25T02:31:38;17.60;;;7.78;;
71162;SDS011;58858;50.948;6.566;2023-04-25T02:41:39;16.05;;;6.35;;
71162;SDS011;58858;50.948;6.566;2023-04-25T02:51:40;15.13;;;7.07;;
71162;SDS011;58858;50.948;6.566;2023-04-25T03:01:42;15.35;;;7.10;;
71162;SDS011;58858;50.948;6.566;2023-04-25T03:11:43;17.42;;;6.78;;
71162;SDS011;58858;50.948;6.566;2023-04-25T03:21:46;22.45;;;7.75;;
71162;SDS011;58858;50.948;6.566;2023-04-25T03:31:47;23.77;;;7.70;;
71162;SDS011;58858;50.948;6.566;2023-04-25T03:41:48;14.27;;;6.38;;
71162;SDS011;58858;50.948;6.566;2023-04-25T03:51:51;16.92;;;6.95;;
71162;SDS011;58858;50.948;6.566;2023-04-25T04:01:53;17.60;;;7.75;;
71162;SDS011;58858;50.948;6.566;2023-04-25T04:11:55;14.38;;;7.38;;
71162;SDS011;58858;50.948;6.566;2023-04-25T04:21:56;18.83;;;7.00;;
71162;SDS011;58858;50.948;6.566;2023-04-25T04:31:58;18.83;;;6.90;;
71162;SDS011;58858;50.948;6.566;2023-04-25T04:42:02;12.73;;;5.38;;
71162;SDS011;58858;50.948;6.566;2023-04-25T04:52:22;15.18;;;6.13;;
71162;SDS011;58858;50.948;6.566;2023-04-25T05:02:23;18.90;;;6.28;;
71162;SDS011;58858;50.948;6.566;2023-04-25T05:12:37;22.88;;;6.50;;
71162;SDS011;58858;50.948;6.566;2023-04-25T05:22:47;15.73;;;6.60;;
71162;SDS011;58858;50.948;6.566;2023-04-25T05:32:54;14.90;;;5.82;;
71162;SDS011;58858;50.948;6.566;2023-04-25T05:42:55;12.85;;;6.20;;
71162;SDS011;58858;50.948;6.566;2023-04-25T05:53:02;15.63;;;6.40;;
71162;SDS011;58858;50.948;6.566;2023-04-25T06:03:23;16.52;;;6.25;;
71162;SDS011;58858;50.948;6.566;2023-04-25T06:13:25;15.15;;;4.88;;
71162;SDS011;58858;50.948;6.566;2023-04-25T06:23:26;15.73;;;5.28;;
71162;SDS011;58858;50.948;6.566;2023-04-25T06:33:34;16.30;;;4.95;;
71162;SDS011;58858;50.948;6.566;2023-04-25T06:43:37;15.98;;;4.93;;
71162;SDS011;58858;50.948;6.566;2023-04-25T06:53:59;19.20;;;4.38;;
71162;SDS011;58858;50.948;6.566;2023-04-25T07:04:06;19.80;;;5.25;;
71162;SDS011;58858;50.948;6.566;2023-04-25T07:14:09;12.90;;;3.63;;
71162;SDS011;58858;50.948;6.566;2023-04-25T07:24:10;11.82;;;3.90;;
71162;SDS011;58858;50.948;6.566;2023-04-25T07:34:15;8.02;;;2.78;;
71162;SDS011;58858;50.948;6.566;2023-04-25T07:44:16;12.45;;;4.47;;
71162;SDS011;58858;50.948;6.566;2023-04-25T07:54:18;15.02;;;3.65;;
71162;SDS011;58858;50.948;6.566;2023-04-25T08:04:25;15.50;;;3.95;;
71162;SDS011;58858;50.948;6.566;2023-04-25T08:14:31;9.18;;;3.15;;
71162;SDS011;58858;50.948;6.566;2023-04-25T08:24:37;15.35;;;3.35;;
71162;SDS011;58858;50.948;6.566;2023-04-25T08:34:39;9.73;;;2.63;;
71162;SDS011;58858;50.948;6.566;2023-04-25T08:44:44;6.88;;;2.67;;
71162;SDS011;58858;50.948;6.566;2023-04-25T08:54:47;7.40;;;2.63;;
71162;SDS011;58858;50.948;6.566;2023-04-25T09:04:49;9.73;;;2.92;;
71162;SDS011;58858;50.948;6.566;2023-04-25T09:15:01;8.48;;;2.60;;
71162;SDS011;58858;50.948;6.566;2023-04-25T09:25:20;9.23;;;2.83;;
71162;SDS011;58858;50.948;6.566;2023-04-25T09:35:25;8.48;;;2.35;;
71162;SDS011;58858;50.948;6.566;2023-04-25T09:45:29;9.85;;;2.15;;
71162;SDS011;58858;50.948;6.566;2023-04-25T09:55:32;8.38;;;2.30;;
71162;SDS011;58858;50.948;6.566;2023-04-25T10:05:35;6.88;;;2.28;;
71162;SDS011;58858;50.948;6.566;2023-04-25T10:15:38;7.78;;;2.05;;
71162;SDS011;58858;50.948;6.566;2023-04-25T10:25:39;11.85;;;2.53;;
71162;SDS011;58858;50.948;6.566;2023-04-25T10:35:41;7.15;;;2.22;;
71162;SDS011;58858;50.948;6.566;2023-04-25T10:45:51;6.20;;;2.33;;
71162;SDS011;58858;50.948;6.566;2023-04-25T10:55:53;9.20;;;3.28;;
71162;SDS011;58858;50.948;6.566;2023-04-25T11:05:55;9.00;;;2.22;;
71162;SDS011;58858;50.948;6.566;2023-04-25T11:15:56;7.20;;;1.80;;
71162;SDS011;58858;50.948;6.566;2023-04-25T11:25:57;5.85;;;1.50;;
71162;SDS011;58858;50.948;6.566;2023-04-25T11:35:58;11.73;;;3.05;;
71162;SDS011;58858;50.948;6.566;2023-04-25T11:45:59;9.85;;;3.33;;
71162;SDS011;58858;50.948;6.566;2023-04-25T11:56:01;6.30;;;2.83;;
71162;SDS011;58858;50.948;6.566;2023-04-25T12:06:02;6.47;;;2.42;;
71162;SDS011;58858;50.948;6.566;2023-04-25T12:16:04;5.68;;;1.75;;
71162;SDS011;58858;50.948;6.566;2023-04-25T12:26:06;4.53;;;1.52;;
71162;SDS011;58858;50.948;6.566;2023-04-25T12:36:07;7.93;;;2.55;;
71162;SDS011;58858;50.948;6.566;2023-04-25T12:46:13;12.70;;;2.72;;
71162;SDS011;58858;50.948;6.566;2023-04-25T12:56:14;9.82;;;1.98;;
71162;SDS011;58858;50.948;6.566;2023-04-25T13:06:16;3.97;;;1.55;;
71162;SDS011;58858;50.948;6.566;2023-04-25T13:16:18;6.68;;;2.50;;
71162;SDS011;58858;50.948;6.566;2023-04-25T13:26:21;3.75;;;2.22;;
71162;SDS011;58858;50.948;6.566;2023-04-25T13:36:22;6.10;;;1.92;;
71162;SDS011;58858;50.948;6.566;2023-04-25T13:46:23;6.75;;;2.53;;
71162;SDS011;58858;50.948;6.566;2023-04-25T13:56:24;3.38;;;1.00;;
71162;SDS011;58858;50.948;6.566;2023-04-25T14:06:25;11.77;;;2.50;;
71162;SDS011;58858;50.948;6.566;2023-04-25T14:16:26;3.63;;;1.80;;
71162;SDS011;58858;50.948;6.566;2023-04-25T14:26:27;6.93;;;2.10;;
71162;SDS011;58858;50.948;6.566;2023-04-25T14:36:28;6.18;;;2.85;;
71162;SDS011;58858;50.948;6.566;2023-04-25T14:46:31;2.92;;;1.20;;
71162;SDS011;58858;50.948;6.566;2023-04-25T14:56:32;2.65;;;0.90;;
71162;SDS011;58858;50.948;6.566;2023-04-25T15:06:33;4.57;;;1.00;;
71162;SDS011;58858;50.948;6.566;2023-04-25T15:16:34;2.95;;;0.95;;
71162;SDS011;58858;50.948;6.566;2023-04-25T15:26:35;5.35;;;2.25;;
71162;SDS011;58858;50.948;6.566;2023-04-25T15:36:36;5.18;;;1.77;;
71162;SDS011;58858;50.948;6.566;2023-04-25T15:46:37;4.25;;;1.52;;
71162;SDS011;58858;50.948;6.566;2023-04-25T15:56:39;5.32;;;1.38;;
71162;SDS011;58858;50.948;6.566;2023-04-25T16:06:40;2.33;;;0.93;;
71162;SDS011;58858;50.948;6.566;2023-04-25T16:16:42;4.68;;;1.23;;
71162;SDS011;58858;50.948;6.566;2023-04-25T16:26:44;3.22;;;1.10;;
71162;SDS011;58858;50.948;6.566;2023-04-25T16:36:45;4.60;;;1.02;;
71162;SDS011;58858;50.948;6.566;2023-04-25T16:46:46;3.08;;;0.90;;
71162;SDS011;58858;50.948;6.566;2023-04-25T16:56:47;3.15;;;0.82;;
71162;SDS011;58858;50.948;6.566;2023-04-25T17:06:48;5.93;;;1.42;;
71162;SDS011;58858;50.948;6.566;2023-04-25T17:16:49;6.18;;;1.40;;
71162;SDS011;58858;50.948;6.566;2023-04-25T17:26:50;4.53;;;1.45;;
71162;SDS011;58858;50.948;6.566;2023-04-25T17:36:51;5.75;;;1.88;;
71162;SDS011;58858;50.948;6.566;2023-04-25T17:46:52;5.85;;;1.35;;
71162;SDS011;58858;50.948;6.566;2023-04-25T17:56:54;6.00;;;1.70;;
71162;SDS011;58858;50.948;6.566;2023-04-25T18:06:55;7.10;;;1.55;;
71162;SDS011;58858;50.948;6.566;2023-04-25T18:16:56;3.55;;;1.10;;
71162;SDS011;58858;50.948;6.566;2023-04-25T18:26:57;3.58;;;1.25;;
71162;SDS011;58858;50.948;6.566;2023-04-25T18:37:00;5.65;;;1.55;;
71162;SDS011;58858;50.948;6.566;2023-04-25T18:47:01;2.63;;;1.42;;
71162;SDS011;58858;50.948;6.566;2023-04-25T18:57:03;8.75;;;2.50;;
71162;SDS011;58858;50.948;6.566;2023-04-25T19:07:05;5.93;;;2.55;;
71162;SDS011;58858;50.948;6.566;2023-04-25T19:17:06;9.20;;;2.78;;
71162;SDS011;58858;50.948;6.566;2023-04-25T19:27:08;12.25;;;2.70;;
71162;SDS011;58858;50.948;6.566;2023-04-25T19:37:09;6.32;;;2.65;;
71162;SDS011;58858;50.948;6.566;2023-04-25T19:47:10;12.00;;;2.63;;
71162;SDS011;58858;50.948;6.566;2023-04-25T19:57:12;4.18;;;1.60;;
71162;SDS011;58858;50.948;6.566;2023-04-25T20:07:13;6.72;;;1.88;;
71162;SDS011;58858;50.948;6.566;2023-04-25T20:17:15;3.28;;;1.30;;
71162;SDS011;58858;50.948;6.566;2023-04-25T20:27:16;5.40;;;2.28;;
71162;SDS011;58858;50.948;6.566;2023-04-25T20:37:17;6.75;;;2.20;;
71162;SDS011;58858;50.948;6.566;2023-04-25T20:47:18;11.10;;;3.15;;
71162;SDS011;58858;50.948;6.566;2023-04-25T20:57:19;7.68;;;2.47;;
71162;SDS011;58858;50.948;6.566;2023-04-25T21:07:20;7.40;;;2.58;;
71162;SDS011;58858;50.948;6.566;2023-04-25T21:17:21;6.15;;;2.55;;
71162;SDS011;58858;50.948;6.566;2023-04-25T21:27:23;9.35;;;3.25;;
71162;SDS011;58858;50.948;6.566;2023-04-25T21:37:24;6.30;;;3.15;;
71162;SDS011;58858;50.948;6.566;2023-04-25T21:47:28;7.82;;;2.00;;
71162;SDS011;58858;50.948;6.566;2023-04-25T21:57:29;5.18;;;2.78;;
71162;SDS011;58858;50.948;6.566;2023-04-25T22:07:30;6.65;;;2.15;;
71162;SDS011;58858;50.948;6.566;2023-04-25T22:17:32;8.00;;;2.45;;
71162;SDS011;58858;50.948;6.566;2023-04-25T22:27:33;10.45;;;3.00;;
71162;SDS011;58858;50.948;6.566;2023-04-25T22:37:35;8.45;;;3.03;;
71162;SDS011;58858;50.948;6.566;2023-04-25T22:47:37;4.13;;;2.35;;
71162;SDS011;58858;50.948;6.566;2023-04-25T22:57:39;6.63;;;2.58;;
71162;SDS011;58858;50.948;6.566;2023-04-25T23:07:40;8.50;;;3.83;;
71162;SDS011;58858;50.948;6.566;2023-04-25T23:17:43;8.35;;;3.58;;
71162;SDS011;58858;50.948;6.566;2023-04-25T23:27:44;7.50;;;2.60;;
71162;SDS011;58858;50.948;6.566;2023-04-25T23:37:46;8.70;;;3.15;;
71162;SDS011;58858;50.948;6.566;2023-04-25T23:47:48;8.55;;;2.78;;
71162;SDS011;58858;50.948;6.566;2023-04-25T23:57:50;8.90;;;2.80;;
